sensor_id;sensor_type;location;lat;lon;timestamp;temperature;humidity
30678;DHT22;73746;47.466;8.992;2024-01-30T00:01:00;0.60;99.90
30678;DHT22;73746;47.466;8.992;2024-01-30T00:03:32;0.60;99.90
30678;DHT22;73746;47.466;8.992;2024-01-30T00:06:05;0.60;99.90
30678;DHT22;73746;47.466;8.992;2024-01-30T00:08:37;0.50;99.90
30678;DHT22;73746;47.466;8.992;2024-01-30T00:11:09;0.50;99.90
30678;DHT22;73746;47.466;8.992;2024-01-30T00:13:41;0.40;99.90
30678;DHT22;73746;47.466;8.992;2024-01-30T00:16:22;0.40;99.90
30678;DHT22;73746;47.466;8.992;2024-01-30T00:18:54;0.40;99.90
30678;DHT22;73746;47.466;8.992;2024-01-30T00:21:29;0.30;99.90
30678;DHT22;73746;47.466;8.992;2024-01-30T00:24:01;0.20;99.90
30678;DHT22;73746;47.466;8.992;2024-01-30T00:26:33;0.30;99.90
30678;DHT22;73746;47.466;8.992;2024-01-30T00:29:05;0.30;99.90
30678;DHT22;73746;47.466;8.992;2024-01-30T00:31:37;0.40;99.90
30678;DHT22;73746;47.466;8.992;2024-01-30T00:36:54;0.30;99.90
30678;DHT22;73746;47.466;8.992;2024-01-30T00:39:26;0.30;99.90
30678;DHT22;73746;47.466;8.992;2024-01-30T00:41:58;0.30;99.90
30678;DHT22;73746;47.466;8.992;2024-01-30T00:44:30;0.20;99.90
30678;DHT22;73746;47.466;8.992;2024-01-30T00:47:03;0.20;99.90
30678;DHT22;73746;47.466;8.992;2024-01-30T00:49:35;0.10;99.90
30678;DHT22;73746;47.466;8.992;2024-01-30T00:52:09;0.10;99.90
30678;DHT22;73746;47.466;8.992;2024-01-30T00:54:41;0.10;99.90
30678;DHT22;73746;47.466;8.992;2024-01-30T00:57:13;0.10;99.90
30678;DHT22;73746;47.466;8.992;2024-01-30T00:59:45;0.10;99.90
30678;DHT22;73746;47.466;8.992;2024-01-30T01:02:17;0.10;99.90
30678;DHT22;73746;47.466;8.992;2024-01-30T01:04:49;0.10;99.90
30678;DHT22;73746;47.466;8.992;2024-01-30T01:07:21;0.10;99.90
30678;DHT22;73746;47.466;8.992;2024-01-30T01:09:53;0.10;99.90
30678;DHT22;73746;47.466;8.992;2024-01-30T01:12:25;0.10;99.90
30678;DHT22;73746;47.466;8.992;2024-01-30T01:14:57;0.10;99.90
30678;DHT22;73746;47.466;8.992;2024-01-30T01:17:29;0.10;99.90
30678;DHT22;73746;47.466;8.992;2024-01-30T01:20:02;0.10;99.90
30678;DHT22;73746;47.466;8.992;2024-01-30T01:22:35;0.10;99.90
30678;DHT22;73746;47.466;8.992;2024-01-30T01:25:09;0.30;99.90
30678;DHT22;73746;47.466;8.992;2024-01-30T01:27:48;0.30;99.90
30678;DHT22;73746;47.466;8.992;2024-01-30T01:30:22;0.30;99.90
30678;DHT22;73746;47.466;8.992;2024-01-30T01:32:54;0.30;99.90
30678;DHT22;73746;47.466;8.992;2024-01-30T01:35:27;0.30;99.90
30678;DHT22;73746;47.466;8.992;2024-01-30T01:37:59;0.40;99.90
30678;DHT22;73746;47.466;8.992;2024-01-30T01:40:31;0.30;99.90
30678;DHT22;73746;47.466;8.992;2024-01-30T01:43:04;0.30;99.90
30678;DHT22;73746;47.466;8.992;2024-01-30T01:45:36;0.30;99.90
30678;DHT22;73746;47.466;8.992;2024-01-30T01:48:09;0.30;99.90
30678;DHT22;73746;47.466;8.992;2024-01-30T01:50:42;0.30;99.90
30678;DHT22;73746;47.466;8.992;2024-01-30T01:53:34;0.30;99.90
30678;DHT22;73746;47.466;8.992;2024-01-30T01:56:07;0.30;99.90
30678;DHT22;73746;47.466;8.992;2024-01-30T01:58:39;0.20;99.90
30678;DHT22;73746;47.466;8.992;2024-01-30T02:01:12;0.20;99.90
30678;DHT22;73746;47.466;8.992;2024-01-30T02:03:45;0.10;99.90
30678;DHT22;73746;47.466;8.992;2024-01-30T02:06:18;0.10;99.90
30678;DHT22;73746;47.466;8.992;2024-01-30T02:08:50;0.10;99.90
30678;DHT22;73746;47.466;8.992;2024-01-30T02:11:41;0.00;99.90
30678;DHT22;73746;47.466;8.992;2024-01-30T02:14:13;-0.10;99.90
30678;DHT22;73746;47.466;8.992;2024-01-30T02:16:45;-0.10;99.90
30678;DHT22;73746;47.466;8.992;2024-01-30T02:19:17;-0.20;99.90
30678;DHT22;73746;47.466;8.992;2024-01-30T02:21:51;-0.20;99.90
30678;DHT22;73746;47.466;8.992;2024-01-30T02:24:23;-0.20;99.90
30678;DHT22;73746;47.466;8.992;2024-01-30T02:26:55;-0.20;99.90
30678;DHT22;73746;47.466;8.992;2024-01-30T02:29:27;-0.30;99.90
30678;DHT22;73746;47.466;8.992;2024-01-30T02:31:59;-0.30;99.90
30678;DHT22;73746;47.466;8.992;2024-01-30T02:34:31;-0.30;99.90
30678;DHT22;73746;47.466;8.992;2024-01-30T02:37:03;-0.30;99.90
30678;DHT22;73746;47.466;8.992;2024-01-30T02:39:35;-0.30;99.90
30678;DHT22;73746;47.466;8.992;2024-01-30T02:42:08;-0.40;99.90
30678;DHT22;73746;47.466;8.992;2024-01-30T02:44:40;-0.40;99.90
30678;DHT22;73746;47.466;8.992;2024-01-30T02:47:12;-0.40;99.90
30678;DHT22;73746;47.466;8.992;2024-01-30T02:49:44;-0.40;99.90
30678;DHT22;73746;47.466;8.992;2024-01-30T02:52:16;-0.30;99.90
30678;DHT22;73746;47.466;8.992;2024-01-30T02:54:48;-0.20;99.90
30678;DHT22;73746;47.466;8.992;2024-01-30T02:57:20;-0.10;99.90
30678;DHT22;73746;47.466;8.992;2024-01-30T02:59:52;-0.10;99.90
30678;DHT22;73746;47.466;8.992;2024-01-30T03:02:24;-0.10;99.90
30678;DHT22;73746;47.466;8.992;2024-01-30T03:04:56;-0.10;99.90
30678;DHT22;73746;47.466;8.992;2024-01-30T03:07:28;-0.10;99.90
30678;DHT22;73746;47.466;8.992;2024-01-30T03:10:01;-0.10;99.90
30678;DHT22;73746;47.466;8.992;2024-01-30T03:12:33;-0.10;99.90
30678;DHT22;73746;47.466;8.992;2024-01-30T03:15:06;-0.20;99.90
30678;DHT22;73746;47.466;8.992;2024-01-30T03:17:38;-0.30;99.90
30678;DHT22;73746;47.466;8.992;2024-01-30T03:20:11;-0.30;99.90
30678;DHT22;73746;47.466;8.992;2024-01-30T03:22:43;-0.30;99.90
30678;DHT22;73746;47.466;8.992;2024-01-30T03:25:15;-0.30;99.90
30678;DHT22;73746;47.466;8.992;2024-01-30T03:27:47;-0.30;99.90
30678;DHT22;73746;47.466;8.992;2024-01-30T03:30:19;-0.30;99.90
30678;DHT22;73746;47.466;8.992;2024-01-30T03:32:51;-0.30;99.90
30678;DHT22;73746;47.466;8.992;2024-01-30T03:35:23;-0.20;99.90
30678;DHT22;73746;47.466;8.992;2024-01-30T03:37:55;-0.20;99.90
30678;DHT22;73746;47.466;8.992;2024-01-30T03:40:27;-0.20;99.90
30678;DHT22;73746;47.466;8.992;2024-01-30T03:42:59;-0.10;99.90
30678;DHT22;73746;47.466;8.992;2024-01-30T03:45:31;-0.20;99.90
30678;DHT22;73746;47.466;8.992;2024-01-30T03:48:05;-0.20;99.90
30678;DHT22;73746;47.466;8.992;2024-01-30T03:50:38;-0.30;99.90
30678;DHT22;73746;47.466;8.992;2024-01-30T03:53:10;-0.30;99.90
30678;DHT22;73746;47.466;8.992;2024-01-30T03:55:42;-0.30;99.90
30678;DHT22;73746;47.466;8.992;2024-01-30T03:58:14;-0.30;99.90
30678;DHT22;73746;47.466;8.992;2024-01-30T04:00:46;-0.30;99.90
30678;DHT22;73746;47.466;8.992;2024-01-30T04:03:18;-0.40;99.90
30678;DHT22;73746;47.466;8.992;2024-01-30T04:05:52;-0.40;99.90
30678;DHT22;73746;47.466;8.992;2024-01-30T04:08:43;-0.50;99.90
30678;DHT22;73746;47.466;8.992;2024-01-30T04:11:17;-0.50;99.90
30678;DHT22;73746;47.466;8.992;2024-01-30T04:13:48;-0.50;99.90
30678;DHT22;73746;47.466;8.992;2024-01-30T04:16:21;-0.50;99.90
30678;DHT22;73746;47.466;8.992;2024-01-30T04:18:53;-0.50;99.90
30678;DHT22;73746;47.466;8.992;2024-01-30T04:21:26;-0.60;99.90
30678;DHT22;73746;47.466;8.992;2024-01-30T04:23:58;-0.50;99.90
30678;DHT22;73746;47.466;8.992;2024-01-30T04:26:30;-0.50;99.90
30678;DHT22;73746;47.466;8.992;2024-01-30T04:29:02;-0.50;99.90
30678;DHT22;73746;47.466;8.992;2024-01-30T04:31:35;-0.60;99.90
30678;DHT22;73746;47.466;8.992;2024-01-30T04:34:07;-0.70;99.90
30678;DHT22;73746;47.466;8.992;2024-01-30T04:36:40;-0.60;99.90
30678;DHT22;73746;47.466;8.992;2024-01-30T04:39:13;-0.60;99.90
30678;DHT22;73746;47.466;8.992;2024-01-30T04:41:45;-0.60;99.90
30678;DHT22;73746;47.466;8.992;2024-01-30T04:44:17;-0.60;99.90
30678;DHT22;73746;47.466;8.992;2024-01-30T04:46:50;-0.60;99.90
30678;DHT22;73746;47.466;8.992;2024-01-30T04:49:21;-0.70;99.90
30678;DHT22;73746;47.466;8.992;2024-01-30T04:51:54;-0.60;99.90
30678;DHT22;73746;47.466;8.992;2024-01-30T04:54:26;-0.70;99.90
30678;DHT22;73746;47.466;8.992;2024-01-30T04:56:58;-0.60;99.90
30678;DHT22;73746;47.466;8.992;2024-01-30T04:59:30;-0.70;99.90
30678;DHT22;73746;47.466;8.992;2024-01-30T05:02:02;-0.70;99.90
30678;DHT22;73746;47.466;8.992;2024-01-30T05:04:34;-0.60;99.90
30678;DHT22;73746;47.466;8.992;2024-01-30T05:07:06;-0.60;99.90
30678;DHT22;73746;47.466;8.992;2024-01-30T05:09:38;-0.60;99.90
30678;DHT22;73746;47.466;8.992;2024-01-30T05:12:10;-0.60;99.90
30678;DHT22;73746;47.466;8.992;2024-01-30T05:14:42;-0.60;99.90
30678;DHT22;73746;47.466;8.992;2024-01-30T05:17:14;-0.60;99.90
30678;DHT22;73746;47.466;8.992;2024-01-30T05:19:46;-0.70;99.90
30678;DHT22;73746;47.466;8.992;2024-01-30T05:22:18;-0.70;99.90
30678;DHT22;73746;47.466;8.992;2024-01-30T05:24:50;-0.70;99.90
30678;DHT22;73746;47.466;8.992;2024-01-30T05:27:22;-0.80;99.90
30678;DHT22;73746;47.466;8.992;2024-01-30T05:29:54;-0.70;99.90
30678;DHT22;73746;47.466;8.992;2024-01-30T05:32:26;-0.60;99.90
30678;DHT22;73746;47.466;8.992;2024-01-30T05:34:59;-0.60;99.90
30678;DHT22;73746;47.466;8.992;2024-01-30T05:37:30;-0.50;99.90
30678;DHT22;73746;47.466;8.992;2024-01-30T05:40:03;-0.60;99.90
30678;DHT22;73746;47.466;8.992;2024-01-30T05:42:35;-0.60;99.90
30678;DHT22;73746;47.466;8.992;2024-01-30T05:45:08;-0.60;99.90
30678;DHT22;73746;47.466;8.992;2024-01-30T05:47:40;-0.60;99.90
30678;DHT22;73746;47.466;8.992;2024-01-30T05:50:12;-0.80;99.90
30678;DHT22;73746;47.466;8.992;2024-01-30T05:52:44;-0.80;99.90
30678;DHT22;73746;47.466;8.992;2024-01-30T05:55:17;-0.90;99.90
30678;DHT22;73746;47.466;8.992;2024-01-30T05:57:49;-0.90;99.90
30678;DHT22;73746;47.466;8.992;2024-01-30T06:00:21;-0.90;99.90
30678;DHT22;73746;47.466;8.992;2024-01-30T06:02:53;-0.90;99.90
30678;DHT22;73746;47.466;8.992;2024-01-30T06:05:25;-0.80;99.90
30678;DHT22;73746;47.466;8.992;2024-01-30T06:07:57;-0.90;99.90
30678;DHT22;73746;47.466;8.992;2024-01-30T06:10:29;-0.90;99.90
30678;DHT22;73746;47.466;8.992;2024-01-30T06:13:01;-0.90;99.90
30678;DHT22;73746;47.466;8.992;2024-01-30T06:15:33;-0.90;99.90
30678;DHT22;73746;47.466;8.992;2024-01-30T06:18:06;-1.00;99.90
30678;DHT22;73746;47.466;8.992;2024-01-30T06:20:38;-1.00;99.90
30678;DHT22;73746;47.466;8.992;2024-01-30T06:23:10;-1.00;99.90
30678;DHT22;73746;47.466;8.992;2024-01-30T06:25:43;-0.90;99.90
30678;DHT22;73746;47.466;8.992;2024-01-30T06:28:15;-0.90;99.90
30678;DHT22;73746;47.466;8.992;2024-01-30T06:30:47;-0.90;99.90
30678;DHT22;73746;47.466;8.992;2024-01-30T06:33:38;-1.00;99.90
30678;DHT22;73746;47.466;8.992;2024-01-30T06:36:11;-0.90;99.90
30678;DHT22;73746;47.466;8.992;2024-01-30T06:38:43;-1.00;99.90
30678;DHT22;73746;47.466;8.992;2024-01-30T06:41:16;-0.90;99.90
30678;DHT22;73746;47.466;8.992;2024-01-30T06:43:48;-0.90;99.90
30678;DHT22;73746;47.466;8.992;2024-01-30T06:46:19;-0.90;99.90
30678;DHT22;73746;47.466;8.992;2024-01-30T06:48:52;-0.90;99.90
30678;DHT22;73746;47.466;8.992;2024-01-30T06:51:24;-0.90;99.90
30678;DHT22;73746;47.466;8.992;2024-01-30T06:53:56;-0.90;99.90
30678;DHT22;73746;47.466;8.992;2024-01-30T06:56:28;-0.80;99.90
30678;DHT22;73746;47.466;8.992;2024-01-30T06:59:00;-0.70;99.90
30678;DHT22;73746;47.466;8.992;2024-01-30T07:01:32;-0.70;99.90
30678;DHT22;73746;47.466;8.992;2024-01-30T07:04:05;-0.70;99.90
30678;DHT22;73746;47.466;8.992;2024-01-30T07:06:37;-0.60;99.90
30678;DHT22;73746;47.466;8.992;2024-01-30T07:09:09;-0.60;99.90
30678;DHT22;73746;47.466;8.992;2024-01-30T07:11:41;-0.60;99.90
30678;DHT22;73746;47.466;8.992;2024-01-30T07:14:13;-0.50;99.90
30678;DHT22;73746;47.466;8.992;2024-01-30T07:16:45;-0.50;99.90
30678;DHT22;73746;47.466;8.992;2024-01-30T07:19:17;-0.30;99.90
30678;DHT22;73746;47.466;8.992;2024-01-30T07:21:49;-0.30;99.90
30678;DHT22;73746;47.466;8.992;2024-01-30T07:24:21;-0.30;99.90
30678;DHT22;73746;47.466;8.992;2024-01-30T07:26:53;-0.40;99.90
30678;DHT22;73746;47.466;8.992;2024-01-30T07:29:25;-0.40;99.90
30678;DHT22;73746;47.466;8.992;2024-01-30T07:31:57;-0.40;99.90
30678;DHT22;73746;47.466;8.992;2024-01-30T07:34:29;-0.40;99.90
30678;DHT22;73746;47.466;8.992;2024-01-30T07:37:03;-0.40;99.90
30678;DHT22;73746;47.466;8.992;2024-01-30T07:39:35;-0.30;99.90
30678;DHT22;73746;47.466;8.992;2024-01-30T07:42:07;-0.20;99.90
30678;DHT22;73746;47.466;8.992;2024-01-30T07:44:39;-0.20;99.90
30678;DHT22;73746;47.466;8.992;2024-01-30T07:47:11;-0.10;99.90
30678;DHT22;73746;47.466;8.992;2024-01-30T07:49:43;-0.10;99.90
30678;DHT22;73746;47.466;8.992;2024-01-30T07:52:16;0.00;99.90
30678;DHT22;73746;47.466;8.992;2024-01-30T07:54:51;0.10;99.90
30678;DHT22;73746;47.466;8.992;2024-01-30T07:57:23;0.10;99.90
30678;DHT22;73746;47.466;8.992;2024-01-30T07:59:55;0.20;99.90
30678;DHT22;73746;47.466;8.992;2024-01-30T08:02:32;0.20;99.90
30678;DHT22;73746;47.466;8.992;2024-01-30T08:05:04;0.30;99.90
30678;DHT22;73746;47.466;8.992;2024-01-30T08:07:37;0.30;99.90
30678;DHT22;73746;47.466;8.992;2024-01-30T08:10:11;0.40;99.90
30678;DHT22;73746;47.466;8.992;2024-01-30T08:12:44;0.50;99.90
30678;DHT22;73746;47.466;8.992;2024-01-30T08:15:17;0.50;99.90
30678;DHT22;73746;47.466;8.992;2024-01-30T08:17:49;0.60;99.90
30678;DHT22;73746;47.466;8.992;2024-01-30T08:20:22;0.70;99.90
30678;DHT22;73746;47.466;8.992;2024-01-30T08:22:55;0.80;99.90
30678;DHT22;73746;47.466;8.992;2024-01-30T08:25:27;0.90;99.90
30678;DHT22;73746;47.466;8.992;2024-01-30T08:28:00;1.10;99.90
30678;DHT22;73746;47.466;8.992;2024-01-30T08:30:32;1.30;99.90
30678;DHT22;73746;47.466;8.992;2024-01-30T08:33:05;1.60;99.90
30678;DHT22;73746;47.466;8.992;2024-01-30T08:35:37;1.80;99.90
30678;DHT22;73746;47.466;8.992;2024-01-30T08:38:09;2.10;99.90
30678;DHT22;73746;47.466;8.992;2024-01-30T08:40:43;2.40;99.90
30678;DHT22;73746;47.466;8.992;2024-01-30T08:43:15;2.80;99.90
30678;DHT22;73746;47.466;8.992;2024-01-30T08:45:47;3.10;99.90
30678;DHT22;73746;47.466;8.992;2024-01-30T08:48:19;3.40;99.90
30678;DHT22;73746;47.466;8.992;2024-01-30T08:50:53;3.80;99.90
30678;DHT22;73746;47.466;8.992;2024-01-30T08:53:25;4.00;99.90
30678;DHT22;73746;47.466;8.992;2024-01-30T08:55:57;4.20;99.90
30678;DHT22;73746;47.466;8.992;2024-01-30T08:58:30;4.40;99.90
30678;DHT22;73746;47.466;8.992;2024-01-30T09:01:02;4.50;99.90
30678;DHT22;73746;47.466;8.992;2024-01-30T09:03:36;4.50;99.90
30678;DHT22;73746;47.466;8.992;2024-01-30T09:06:10;4.60;99.90
30678;DHT22;73746;47.466;8.992;2024-01-30T09:08:42;4.50;99.90
30678;DHT22;73746;47.466;8.992;2024-01-30T09:11:15;4.40;99.90
30678;DHT22;73746;47.466;8.992;2024-01-30T09:13:47;4.30;99.90
30678;DHT22;73746;47.466;8.992;2024-01-30T09:16:18;4.20;99.90
30678;DHT22;73746;47.466;8.992;2024-01-30T09:18:50;4.20;99.90
30678;DHT22;73746;47.466;8.992;2024-01-30T09:21:22;4.10;99.90
30678;DHT22;73746;47.466;8.992;2024-01-30T09:24:00;4.00;99.90
30678;DHT22;73746;47.466;8.992;2024-01-30T09:26:28;4.00;99.90
30678;DHT22;73746;47.466;8.992;2024-01-30T09:29:00;4.10;99.90
30678;DHT22;73746;47.466;8.992;2024-01-30T09:31:33;4.20;99.90
30678;DHT22;73746;47.466;8.992;2024-01-30T09:34:04;4.30;99.90
30678;DHT22;73746;47.466;8.992;2024-01-30T09:36:36;4.50;99.90
30678;DHT22;73746;47.466;8.992;2024-01-30T09:39:08;4.60;99.90
30678;DHT22;73746;47.466;8.992;2024-01-30T09:41:44;4.80;99.90
30678;DHT22;73746;47.466;8.992;2024-01-30T09:44:16;5.00;99.90
30678;DHT22;73746;47.466;8.992;2024-01-30T09:46:48;5.20;99.90
30678;DHT22;73746;47.466;8.992;2024-01-30T09:49:21;5.40;99.90
30678;DHT22;73746;47.466;8.992;2024-01-30T09:51:55;5.60;99.90
30678;DHT22;73746;47.466;8.992;2024-01-30T09:54:28;5.70;99.90
30678;DHT22;73746;47.466;8.992;2024-01-30T09:57:03;5.80;99.90
30678;DHT22;73746;47.466;8.992;2024-01-30T09:59:35;5.80;99.90
30678;DHT22;73746;47.466;8.992;2024-01-30T10:02:07;5.90;99.90
30678;DHT22;73746;47.466;8.992;2024-01-30T10:04:40;5.90;99.90
30678;DHT22;73746;47.466;8.992;2024-01-30T10:07:12;6.00;99.90
30678;DHT22;73746;47.466;8.992;2024-01-30T10:09:44;6.10;99.90
30678;DHT22;73746;47.466;8.992;2024-01-30T10:12:17;6.20;99.90
30678;DHT22;73746;47.466;8.992;2024-01-30T10:14:48;6.30;99.90
30678;DHT22;73746;47.466;8.992;2024-01-30T10:17:20;6.50;99.90
30678;DHT22;73746;47.466;8.992;2024-01-30T10:19:54;6.80;99.90
30678;DHT22;73746;47.466;8.992;2024-01-30T10:22:26;6.90;99.90
30678;DHT22;73746;47.466;8.992;2024-01-30T10:24:58;7.00;99.90
30678;DHT22;73746;47.466;8.992;2024-01-30T10:27:33;7.20;99.90
30678;DHT22;73746;47.466;8.992;2024-01-30T10:30:07;7.40;99.90
30678;DHT22;73746;47.466;8.992;2024-01-30T10:32:39;7.50;99.90
30678;DHT22;73746;47.466;8.992;2024-01-30T10:35:11;7.60;99.90
30678;DHT22;73746;47.466;8.992;2024-01-30T10:37:45;7.80;99.90
30678;DHT22;73746;47.466;8.992;2024-01-30T10:40:20;8.00;99.90
30678;DHT22;73746;47.466;8.992;2024-01-30T10:42:54;8.20;99.90
30678;DHT22;73746;47.466;8.992;2024-01-30T10:45:29;8.10;99.90
30678;DHT22;73746;47.466;8.992;2024-01-30T10:48:02;8.20;99.90
30678;DHT22;73746;47.466;8.992;2024-01-30T10:50:36;8.30;99.90
30678;DHT22;73746;47.466;8.992;2024-01-30T10:53:11;8.30;99.90
30678;DHT22;73746;47.466;8.992;2024-01-30T10:55:45;8.40;99.90
30678;DHT22;73746;47.466;8.992;2024-01-30T10:58:19;8.50;99.90
30678;DHT22;73746;47.466;8.992;2024-01-30T11:00:51;8.70;99.90
30678;DHT22;73746;47.466;8.992;2024-01-30T11:03:24;8.80;99.90
30678;DHT22;73746;47.466;8.992;2024-01-30T11:05:59;8.90;99.90
30678;DHT22;73746;47.466;8.992;2024-01-30T11:08:32;8.90;99.90
30678;DHT22;73746;47.466;8.992;2024-01-30T11:11:08;9.00;99.90
30678;DHT22;73746;47.466;8.992;2024-01-30T11:13:41;9.10;99.90
30678;DHT22;73746;47.466;8.992;2024-01-30T11:16:13;9.10;99.90
30678;DHT22;73746;47.466;8.992;2024-01-30T11:18:50;8.90;99.90
30678;DHT22;73746;47.466;8.992;2024-01-30T11:21:25;8.80;99.90
30678;DHT22;73746;47.466;8.992;2024-01-30T11:23:57;8.60;99.90
30678;DHT22;73746;47.466;8.992;2024-01-30T11:26:30;8.60;99.90
30678;DHT22;73746;47.466;8.992;2024-01-30T11:29:07;8.50;99.90
30678;DHT22;73746;47.466;8.992;2024-01-30T11:31:38;8.50;99.90
30678;DHT22;73746;47.466;8.992;2024-01-30T11:34:11;8.60;99.90
30678;DHT22;73746;47.466;8.992;2024-01-30T11:36:46;8.70;99.90
30678;DHT22;73746;47.466;8.992;2024-01-30T11:39:21;9.00;99.90
30678;DHT22;73746;47.466;8.992;2024-01-30T11:41:53;9.20;99.90
30678;DHT22;73746;47.466;8.992;2024-01-30T11:44:26;9.50;99.90
30678;DHT22;73746;47.466;8.992;2024-01-30T11:46:58;9.70;99.90
30678;DHT22;73746;47.466;8.992;2024-01-30T11:49:30;9.90;99.90
30678;DHT22;73746;47.466;8.992;2024-01-30T11:52:02;10.30;99.90
30678;DHT22;73746;47.466;8.992;2024-01-30T11:54:35;10.40;99.90
30678;DHT22;73746;47.466;8.992;2024-01-30T11:57:07;10.60;99.90
30678;DHT22;73746;47.466;8.992;2024-01-30T11:59:40;10.60;99.90
30678;DHT22;73746;47.466;8.992;2024-01-30T12:02:56;10.50;99.90
30678;DHT22;73746;47.466;8.992;2024-01-30T12:05:30;10.50;99.90
30678;DHT22;73746;47.466;8.992;2024-01-30T12:08:02;10.30;99.90
30678;DHT22;73746;47.466;8.992;2024-01-30T12:10:34;10.20;99.90
30678;DHT22;73746;47.466;8.992;2024-01-30T12:13:06;10.00;99.90
30678;DHT22;73746;47.466;8.992;2024-01-30T12:15:38;9.90;99.90
30678;DHT22;73746;47.466;8.992;2024-01-30T12:18:10;9.80;99.90
30678;DHT22;73746;47.466;8.992;2024-01-30T12:20:43;9.70;99.90
30678;DHT22;73746;47.466;8.992;2024-01-30T12:23:15;9.70;99.90
30678;DHT22;73746;47.466;8.992;2024-01-30T12:25:47;9.70;99.90
30678;DHT22;73746;47.466;8.992;2024-01-30T12:28:19;9.70;99.90
30678;DHT22;73746;47.466;8.992;2024-01-30T12:30:51;9.80;99.90
30678;DHT22;73746;47.466;8.992;2024-01-30T12:33:27;9.90;99.90
30678;DHT22;73746;47.466;8.992;2024-01-30T12:36:01;9.90;99.90
30678;DHT22;73746;47.466;8.992;2024-01-30T12:38:34;10.00;99.90
30678;DHT22;73746;47.466;8.992;2024-01-30T12:41:08;9.90;99.90
30678;DHT22;73746;47.466;8.992;2024-01-30T12:43:41;9.90;99.90
30678;DHT22;73746;47.466;8.992;2024-01-30T12:46:16;9.80;99.90
30678;DHT22;73746;47.466;8.992;2024-01-30T12:48:48;9.90;99.90
30678;DHT22;73746;47.466;8.992;2024-01-30T12:51:20;9.80;99.90
30678;DHT22;73746;47.466;8.992;2024-01-30T12:53:53;9.90;99.90
30678;DHT22;73746;47.466;8.992;2024-01-30T12:56:24;10.10;99.90
30678;DHT22;73746;47.466;8.992;2024-01-30T12:58:56;10.30;99.90
30678;DHT22;73746;47.466;8.992;2024-01-30T13:01:29;10.30;99.90
30678;DHT22;73746;47.466;8.992;2024-01-30T13:04:01;10.30;99.90
30678;DHT22;73746;47.466;8.992;2024-01-30T13:06:33;10.30;99.90
30678;DHT22;73746;47.466;8.992;2024-01-30T13:09:05;10.30;99.90
30678;DHT22;73746;47.466;8.992;2024-01-30T13:11:37;10.40;99.90
30678;DHT22;73746;47.466;8.992;2024-01-30T13:14:09;11.00;99.90
30678;DHT22;73746;47.466;8.992;2024-01-30T13:16:41;11.80;99.90
30678;DHT22;73746;47.466;8.992;2024-01-30T13:19:14;12.90;99.90
30678;DHT22;73746;47.466;8.992;2024-01-30T13:21:46;14.10;99.90
30678;DHT22;73746;47.466;8.992;2024-01-30T13:24:18;14.70;99.90
30678;DHT22;73746;47.466;8.992;2024-01-30T13:26:52;15.40;99.90
30678;DHT22;73746;47.466;8.992;2024-01-30T13:29:24;15.80;99.90
30678;DHT22;73746;47.466;8.992;2024-01-30T13:31:56;16.20;99.90
30678;DHT22;73746;47.466;8.992;2024-01-30T13:34:29;16.10;99.90
30678;DHT22;73746;47.466;8.992;2024-01-30T13:37:02;15.50;99.90
30678;DHT22;73746;47.466;8.992;2024-01-30T13:39:34;15.10;99.90
30678;DHT22;73746;47.466;8.992;2024-01-30T13:42:07;14.80;99.90
30678;DHT22;73746;47.466;8.992;2024-01-30T13:44:39;14.80;99.90
30678;DHT22;73746;47.466;8.992;2024-01-30T13:47:13;15.10;99.90
30678;DHT22;73746;47.466;8.992;2024-01-30T13:49:45;15.60;99.90
30678;DHT22;73746;47.466;8.992;2024-01-30T13:52:17;16.10;99.90
30678;DHT22;73746;47.466;8.992;2024-01-30T13:54:50;16.90;99.90
30678;DHT22;73746;47.466;8.992;2024-01-30T13:57:23;17.30;99.90
30678;DHT22;73746;47.466;8.992;2024-01-30T13:59:55;17.80;99.90
30678;DHT22;73746;47.466;8.992;2024-01-30T14:02:27;18.20;99.90
30678;DHT22;73746;47.466;8.992;2024-01-30T14:04:59;18.20;99.90
30678;DHT22;73746;47.466;8.992;2024-01-30T14:07:32;17.60;99.90
30678;DHT22;73746;47.466;8.992;2024-01-30T14:10:05;17.10;99.90
30678;DHT22;73746;47.466;8.992;2024-01-30T14:12:38;16.70;99.90
30678;DHT22;73746;47.466;8.992;2024-01-30T14:15:11;16.30;99.90
30678;DHT22;73746;47.466;8.992;2024-01-30T14:17:45;16.30;99.90
30678;DHT22;73746;47.466;8.992;2024-01-30T14:20:19;16.20;99.90
30678;DHT22;73746;47.466;8.992;2024-01-30T14:22:51;16.60;99.90
30678;DHT22;73746;47.466;8.992;2024-01-30T14:25:26;17.10;99.90
30678;DHT22;73746;47.466;8.992;2024-01-30T14:27:59;17.60;99.90
30678;DHT22;73746;47.466;8.992;2024-01-30T14:30:31;17.80;99.90
30678;DHT22;73746;47.466;8.992;2024-01-30T14:33:03;17.70;99.90
30678;DHT22;73746;47.466;8.992;2024-01-30T14:35:37;17.30;99.90
30678;DHT22;73746;47.466;8.992;2024-01-30T14:38:09;16.60;99.90
30678;DHT22;73746;47.466;8.992;2024-01-30T14:40:42;15.60;99.90
30678;DHT22;73746;47.466;8.992;2024-01-30T14:43:14;14.80;99.90
30678;DHT22;73746;47.466;8.992;2024-01-30T14:45:46;14.10;99.90
30678;DHT22;73746;47.466;8.992;2024-01-30T14:48:20;13.50;99.90
30678;DHT22;73746;47.466;8.992;2024-01-30T14:50:52;12.90;99.90
30678;DHT22;73746;47.466;8.992;2024-01-30T14:53:24;12.50;99.90
30678;DHT22;73746;47.466;8.992;2024-01-30T14:55:56;12.20;99.90
30678;DHT22;73746;47.466;8.992;2024-01-30T14:58:27;11.90;99.90
30678;DHT22;73746;47.466;8.992;2024-01-30T15:01:00;11.70;99.90
30678;DHT22;73746;47.466;8.992;2024-01-30T15:03:32;11.70;99.90
30678;DHT22;73746;47.466;8.992;2024-01-30T15:06:06;11.70;99.90
30678;DHT22;73746;47.466;8.992;2024-01-30T15:08:38;11.80;99.90
30678;DHT22;73746;47.466;8.992;2024-01-30T15:11:10;11.80;99.90
30678;DHT22;73746;47.466;8.992;2024-01-30T15:13:43;11.70;99.90
30678;DHT22;73746;47.466;8.992;2024-01-30T15:16:15;11.50;99.90
30678;DHT22;73746;47.466;8.992;2024-01-30T15:18:47;11.30;99.90
30678;DHT22;73746;47.466;8.992;2024-01-30T15:21:19;11.00;99.90
30678;DHT22;73746;47.466;8.992;2024-01-30T15:23:54;10.80;99.90
30678;DHT22;73746;47.466;8.992;2024-01-30T15:26:26;10.60;99.90
30678;DHT22;73746;47.466;8.992;2024-01-30T15:28:58;10.40;99.90
30678;DHT22;73746;47.466;8.992;2024-01-30T15:31:30;10.20;99.90
30678;DHT22;73746;47.466;8.992;2024-01-30T15:34:01;10.00;99.90
30678;DHT22;73746;47.466;8.992;2024-01-30T15:36:34;9.80;99.90
30678;DHT22;73746;47.466;8.992;2024-01-30T15:39:06;9.70;99.90
30678;DHT22;73746;47.466;8.992;2024-01-30T15:41:37;9.50;99.90
30678;DHT22;73746;47.466;8.992;2024-01-30T15:44:09;9.40;99.90
30678;DHT22;73746;47.466;8.992;2024-01-30T15:46:41;9.30;99.90
30678;DHT22;73746;47.466;8.992;2024-01-30T15:49:13;9.10;99.90
30678;DHT22;73746;47.466;8.992;2024-01-30T15:51:45;8.90;99.90
30678;DHT22;73746;47.466;8.992;2024-01-30T15:54:17;8.80;99.90
30678;DHT22;73746;47.466;8.992;2024-01-30T15:56:50;8.70;99.90
30678;DHT22;73746;47.466;8.992;2024-01-30T15:59:23;8.60;99.90
30678;DHT22;73746;47.466;8.992;2024-01-30T16:01:55;8.50;99.90
30678;DHT22;73746;47.466;8.992;2024-01-30T16:04:29;8.40;99.90
30678;DHT22;73746;47.466;8.992;2024-01-30T16:07:01;8.30;99.90
30678;DHT22;73746;47.466;8.992;2024-01-30T16:09:34;8.10;99.90
30678;DHT22;73746;47.466;8.992;2024-01-30T16:12:07;8.00;99.90
30678;DHT22;73746;47.466;8.992;2024-01-30T16:17:22;8.00;99.90